createdAt,value
2022-11-18T00:01:17.303Z,81.50
2022-11-18T00:03:45.441Z,81.40
2022-11-18T00:06:15.761Z,81.30
2022-11-18T00:08:43.175Z,81.30
2022-11-18T00:11:38.727Z,81.30
2022-11-18T00:14:20.029Z,81.20
2022-11-18T00:17:01.486Z,81.30
2022-11-18T00:19:31.871Z,81.30
2022-11-18T00:21:59.656Z,81.30
2022-11-18T00:24:27.716Z,81.30
2022-11-18T00:26:55.680Z,81.20
2022-11-18T00:29:23.914Z,81.10
2022-11-18T00:31:51.344Z,81.10
2022-11-18T00:34:19.416Z,81.00
2022-11-18T00:36:48.142Z,80.80
2022-11-18T00:39:19.462Z,80.80
2022-11-18T00:42:06.662Z,80.80
2022-11-18T00:44:34.520Z,80.80
2022-11-18T00:47:02.255Z,80.70
2022-11-18T00:49:29.959Z,80.70
2022-11-18T00:51:57.399Z,80.70
2022-11-18T00:54:24.794Z,80.70
2022-11-18T00:56:52.215Z,80.70
2022-11-18T00:59:20.114Z,80.70
2022-11-18T01:01:49.126Z,80.60
2022-11-18T01:04:17.311Z,80.60
2022-11-18T01:06:44.715Z,80.60
2022-11-18T01:09:11.956Z,80.60
2022-11-18T01:11:58.227Z,80.70
2022-11-18T01:14:26.487Z,80.60
2022-11-18T01:16:55.585Z,80.70
2022-11-18T01:19:23.947Z,80.70
2022-11-18T01:21:51.599Z,80.60
2022-11-18T01:24:19.182Z,80.60
2022-11-18T01:26:46.599Z,80.70
2022-11-18T01:29:14.470Z,80.70
2022-11-18T01:32:01.516Z,80.70
2022-11-18T01:34:29.772Z,80.80
2022-11-18T01:36:58.641Z,80.80
2022-11-18T01:39:26.557Z,80.80
2022-11-18T01:41:54.011Z,80.90
2022-11-18T01:45:00.519Z,80.80
2022-11-18T01:47:35.687Z,80.80
2022-11-18T01:50:05.072Z,80.80
2022-11-18T01:52:34.619Z,80.80
2022-11-18T01:55:11.575Z,81.00
2022-11-18T01:57:40.427Z,80.90
2022-11-18T02:00:08.861Z,80.90
2022-11-18T02:02:38.201Z,80.80
2022-11-18T02:05:07.873Z,80.90
2022-11-18T02:07:40.077Z,80.80
2022-11-18T02:10:09.183Z,80.80
2022-11-18T02:12:37.876Z,80.80
2022-11-18T02:15:06.111Z,80.70
2022-11-18T02:18:04.423Z,80.80
2022-11-18T02:20:40.056Z,80.80
2022-11-18T02:23:37.495Z,80.80
2022-11-18T02:26:20.503Z,80.70
2022-11-18T02:29:10.242Z,80.80
2022-11-18T02:31:58.548Z,80.80
2022-11-18T02:34:47.098Z,81.20
2022-11-18T02:37:35.012Z,80.80
2022-11-18T02:40:22.019Z,81.30
2022-11-18T02:42:54.802Z,80.90
2022-11-18T02:45:23.498Z,80.90
2022-11-18T02:47:53.817Z,81.00
2022-11-18T02:50:25.577Z,80.90
2022-11-18T02:52:57.137Z,80.90
2022-11-18T02:55:27.860Z,81.00
2022-11-18T02:57:57.323Z,81.00
2022-11-18T03:00:24.639Z,81.00
2022-11-18T03:02:52.112Z,80.90
2022-11-18T03:05:36.567Z,81.00
2022-11-18T03:08:12.884Z,81.10
2022-11-18T03:11:09.009Z,81.10
2022-11-18T03:13:47.435Z,81.10
2022-11-18T03:16:23.425Z,81.10
2022-11-18T03:19:05.589Z,81.00
2022-11-18T03:21:40.714Z,81.10
2022-11-18T03:24:19.036Z,81.10
2022-11-18T03:26:52.462Z,81.20
2022-11-18T03:29:25.472Z,81.20
2022-11-18T03:32:05.985Z,81.30
2022-11-18T03:34:45.696Z,81.40
2022-11-18T03:37:16.735Z,81.50
2022-11-18T03:39:52.483Z,81.40
2022-11-18T03:42:32.701Z,81.40
2022-11-18T03:45:06.180Z,81.40
2022-11-18T03:47:41.289Z,81.50
2022-11-18T03:50:21.966Z,81.40
2022-11-18T03:52:50.976Z,81.40
2022-11-18T03:55:23.801Z,81.30
2022-11-18T03:57:54.005Z,81.20
2022-11-18T04:00:21.659Z,81.20
2022-11-18T04:02:51.083Z,81.20
2022-11-18T04:05:19.420Z,81.20
2022-11-18T04:07:49.596Z,81.30
2022-11-18T04:10:22.703Z,81.40
2022-11-18T04:13:06.609Z,81.40
2022-11-18T04:15:38.504Z,81.50
2022-11-18T04:18:07.677Z,81.70
2022-11-18T04:20:37.034Z,81.60
2022-11-18T04:23:05.869Z,81.60
2022-11-18T04:25:33.451Z,81.70
2022-11-18T04:28:01.042Z,81.80
2022-11-18T04:30:28.396Z,81.70
2022-11-18T04:32:55.919Z,81.80
2022-11-18T04:35:23.776Z,81.80
2022-11-18T04:37:51.185Z,81.80
2022-11-18T04:40:18.544Z,81.70
2022-11-18T04:42:45.892Z,81.70
2022-11-18T04:45:13.183Z,81.80
2022-11-18T04:47:40.608Z,81.80
2022-11-18T04:50:08.283Z,81.70
2022-11-18T04:52:35.659Z,81.70
2022-11-18T04:55:03.244Z,81.60
2022-11-18T04:57:30.603Z,81.60
2022-11-18T04:59:57.916Z,81.60
2022-11-18T05:02:25.187Z,81.60
2022-11-18T05:04:52.672Z,81.60
2022-11-18T05:07:20.181Z,81.50
2022-11-18T05:09:47.481Z,81.50
2022-11-18T05:12:34.352Z,81.50
2022-11-18T05:15:01.734Z,81.50
2022-11-18T05:17:29.086Z,81.50
2022-11-18T05:19:56.429Z,81.50
2022-11-18T05:22:23.701Z,81.80
2022-11-18T05:24:51.069Z,81.50
2022-11-18T05:27:18.378Z,81.60
2022-11-18T05:29:45.753Z,81.60
2022-11-18T05:32:13.435Z,81.70
2022-11-18T05:34:42.188Z,81.60
2022-11-18T05:37:09.720Z,81.60
2022-11-18T05:39:37.107Z,81.60
2022-11-18T05:42:23.675Z,81.50
2022-11-18T05:44:56.342Z,81.40
2022-11-18T05:47:26.739Z,81.30
2022-11-18T05:49:54.243Z,81.30
2022-11-18T05:52:21.625Z,81.40
2022-11-18T05:54:50.943Z,81.40
2022-11-18T05:57:18.407Z,81.50
2022-11-18T05:59:45.860Z,81.40
2022-11-18T06:02:18.443Z,81.40
2022-11-18T06:04:57.437Z,81.40
2022-11-18T06:07:37.034Z,81.50
2022-11-18T06:10:06.299Z,81.50
2022-11-18T06:12:41.742Z,81.60
2022-11-18T06:15:27.633Z,81.60
2022-11-18T06:17:57.140Z,81.60
2022-11-18T06:20:24.687Z,81.60
2022-11-18T06:22:56.303Z,81.60
2022-11-18T06:25:24.396Z,81.70
2022-11-18T06:27:53.943Z,81.70
2022-11-18T06:30:21.462Z,81.60
2022-11-18T06:32:48.987Z,81.70
2022-11-18T06:35:16.984Z,81.60
2022-11-18T06:37:46.172Z,81.60
2022-11-18T06:40:13.592Z,81.60
2022-11-18T06:42:59.528Z,81.60
2022-11-18T06:45:27.162Z,81.60
2022-11-18T06:48:00.845Z,81.70
2022-11-18T06:50:28.867Z,81.60
2022-11-18T06:52:59.510Z,81.60
2022-11-18T06:55:27.297Z,81.70
2022-11-18T06:57:56.645Z,81.70
2022-11-18T07:00:24.033Z,81.80
2022-11-18T07:02:51.836Z,81.70
2022-11-18T07:05:19.212Z,81.80
2022-11-18T07:07:46.751Z,81.90
2022-11-18T07:10:15.612Z,81.90
2022-11-18T07:12:43.237Z,81.80
2022-11-18T07:15:10.814Z,81.80
2022-11-18T07:17:38.227Z,81.80
2022-11-18T07:20:06.383Z,81.70
2022-11-18T07:22:33.764Z,81.80
2022-11-18T07:25:01.227Z,81.70
2022-11-18T07:27:28.643Z,81.70
2022-11-18T07:29:56.040Z,81.70
2022-11-18T07:32:23.372Z,81.70
2022-11-18T07:34:50.696Z,81.70
2022-11-18T07:37:18.045Z,81.70
2022-11-18T07:39:45.650Z,81.70
2022-11-18T07:42:13.097Z,81.70
2022-11-18T07:44:40.484Z,81.70
2022-11-18T07:47:07.827Z,81.70
2022-11-18T07:49:35.267Z,81.80
2022-11-18T07:52:02.674Z,81.80
2022-11-18T07:54:30.360Z,81.90
2022-11-18T07:56:57.835Z,81.80
2022-11-18T07:59:25.220Z,81.70
2022-11-18T08:01:52.657Z,81.60
2022-11-18T08:04:19.977Z,81.60
2022-11-18T08:06:47.308Z,81.60
2022-11-18T08:09:15.097Z,81.60
2022-11-18T08:11:42.759Z,81.70
2022-11-18T08:14:10.135Z,81.60
2022-11-18T08:16:37.629Z,81.70
2022-11-18T08:19:05.020Z,81.80
2022-11-18T08:21:32.540Z,81.80
2022-11-18T08:24:00.010Z,81.70
2022-11-18T08:26:27.980Z,81.80
2022-11-18T08:28:55.682Z,81.80
2022-11-18T08:31:25.866Z,81.80
2022-11-18T08:33:58.659Z,81.90
2022-11-18T08:36:31.732Z,81.80
2022-11-18T08:39:00.824Z,81.80
2022-11-18T08:41:34.491Z,81.80
2022-11-18T08:44:02.888Z,81.80
2022-11-18T08:46:30.999Z,81.80
2022-11-18T08:48:58.800Z,81.80
2022-11-18T08:51:27.035Z,81.80
2022-11-18T08:53:54.597Z,81.80
2022-11-18T08:56:23.684Z,81.70
2022-11-18T08:58:52.043Z,81.80
2022-11-18T09:01:19.844Z,81.70
2022-11-18T09:03:48.579Z,81.60
2022-11-18T09:06:19.164Z,81.50
2022-11-18T09:08:47.319Z,81.50
2022-11-18T09:11:24.536Z,81.50
2022-11-18T09:16:44.879Z,81.40
2022-11-18T09:19:45.173Z,82.20
2022-11-18T09:22:00.290Z,81.30
2022-11-18T09:24:28.097Z,81.30
2022-11-18T09:26:55.586Z,81.20
2022-11-18T09:29:26.029Z,81.10
2022-11-18T09:31:53.965Z,81.10
2022-11-18T09:34:22.851Z,81.00
2022-11-18T09:36:50.860Z,81.00
2022-11-18T09:39:18.621Z,81.10
2022-11-18T09:41:48.929Z,81.20
2022-11-18T09:44:39.703Z,81.10
2022-11-18T09:47:28.028Z,81.20
2022-11-18T09:53:25.741Z,81.30
2022-11-18T09:55:54.594Z,81.20
2022-11-18T09:58:34.473Z,81.30
2022-11-18T10:01:03.582Z,81.50
2022-11-18T10:03:33.183Z,81.60
2022-11-18T10:06:03.665Z,81.60
2022-11-18T10:09:09.268Z,81.60
2022-11-18T10:11:58.437Z,81.60
2022-11-18T10:15:10.038Z,81.80
2022-11-18T10:18:04.800Z,81.40
2022-11-18T10:20:53.736Z,81.20
2022-11-18T10:23:26.857Z,81.20
2022-11-18T10:25:54.707Z,81.10
2022-11-18T10:28:26.049Z,81.20
2022-11-18T10:30:53.632Z,81.10
2022-11-18T10:33:27.690Z,81.00
2022-11-18T10:36:16.872Z,80.70
2022-11-18T10:38:49.678Z,80.60
2022-11-18T10:41:20.911Z,80.50
2022-11-18T10:43:51.784Z,80.50
2022-11-18T10:46:27.420Z,80.50
2022-11-18T10:49:09.933Z,80.50
2022-11-18T10:51:48.587Z,80.40
2022-11-18T10:54:16.344Z,80.30
2022-11-18T10:57:13.472Z,80.20
2022-11-18T10:59:53.462Z,79.80
2022-11-18T11:02:32.876Z,79.90
2022-11-18T11:05:04.514Z,79.70
2022-11-18T11:07:33.198Z,79.80
2022-11-18T11:10:07.124Z,80.00
2022-11-18T11:12:37.456Z,80.00
2022-11-18T11:15:16.622Z,80.20
2022-11-18T11:18:17.712Z,80.20
2022-11-18T11:20:45.433Z,80.40
2022-11-18T11:23:20.398Z,80.40
2022-11-18T11:29:21.400Z,80.60
2022-11-18T11:32:10.223Z,80.60
2022-11-18T11:34:51.771Z,80.60
2022-11-18T11:37:43.465Z,80.60
2022-11-18T11:40:40.418Z,80.70
2022-11-18T11:43:25.625Z,80.90
2022-11-18T11:46:08.913Z,80.80
2022-11-18T11:48:44.886Z,80.90
2022-11-18T11:51:21.438Z,80.60
2022-11-18T11:54:04.388Z,80.60
2022-11-18T11:57:05.191Z,80.70
2022-11-18T11:59:55.939Z,80.80
2022-11-18T12:02:38.883Z,80.70
2022-11-18T12:05:27.811Z,80.40
2022-11-18T12:08:19.402Z,80.20
2022-11-18T12:10:53.808Z,80.00
2022-11-18T12:13:24.926Z,80.20
2022-11-18T12:16:18.071Z,80.00
2022-11-18T12:19:02.676Z,79.90
2022-11-18T12:21:47.754Z,79.70
2022-11-18T12:24:17.399Z,79.70
2022-11-18T12:26:47.285Z,79.80
2022-11-18T12:29:21.107Z,80.00
2022-11-18T12:31:54.876Z,80.30
2022-11-18T12:34:34.652Z,80.50
2022-11-18T12:37:25.258Z,80.70
2022-11-18T12:39:55.373Z,80.80
2022-11-18T12:43:14.655Z,80.60
2022-11-18T12:45:43.931Z,80.50
2022-11-18T12:48:38.828Z,80.40
2022-11-18T12:51:15.406Z,80.10
2022-11-18T12:53:47.538Z,80.00
2022-11-18T12:56:17.778Z,80.10
2022-11-18T12:58:46.711Z,80.20
2022-11-18T13:01:18.835Z,80.30
2022-11-18T13:03:46.472Z,80.20
2022-11-18T13:06:29.178Z,80.30
2022-11-18T13:09:05.380Z,80.00
2022-11-18T13:11:44.623Z,78.50
2022-11-18T13:14:51.048Z,77.90
2022-11-18T13:17:58.628Z,77.40
2022-11-18T13:20:31.140Z,77.60
2022-11-18T13:23:35.611Z,77.90
2022-11-18T13:26:12.055Z,77.90
2022-11-18T13:28:47.501Z,78.20
2022-11-18T13:31:14.906Z,78.60
2022-11-18T13:33:42.434Z,78.60
2022-11-18T13:36:20.386Z,78.70
2022-11-18T13:39:02.294Z,78.50
2022-11-18T13:41:33.271Z,78.90
2022-11-18T13:44:18.728Z,79.10
2022-11-18T13:46:51.411Z,79.10
2022-11-18T13:49:27.386Z,78.90
2022-11-18T13:51:56.798Z,79.10
2022-11-18T13:54:27.094Z,79.10
2022-11-18T13:56:54.954Z,79.30
2022-11-18T13:59:24.680Z,79.30
2022-11-18T14:01:55.367Z,79.40
2022-11-18T14:04:25.644Z,79.20
2022-11-18T14:06:53.359Z,79.20
2022-11-18T14:09:25.581Z,79.10
2022-11-18T14:12:06.196Z,79.10
2022-11-18T14:14:35.776Z,78.90
2022-11-18T14:17:18.271Z,79.00
2022-11-18T14:19:47.710Z,78.70
2022-11-18T14:22:24.660Z,78.70
2022-11-18T14:24:57.710Z,78.00
2022-11-18T14:27:51.162Z,77.90
2022-11-18T14:30:35.523Z,78.00
2022-11-18T14:33:09.615Z,77.40
2022-11-18T14:35:41.089Z,77.30
2022-11-18T14:41:08.433Z,77.30
2022-11-18T14:43:36.315Z,77.10
2022-11-18T14:46:07.702Z,77.20
2022-11-18T14:48:35.201Z,77.00
2022-11-18T14:51:02.629Z,77.00
2022-11-18T14:53:30.157Z,77.30
2022-11-18T14:55:59.715Z,77.30
2022-11-18T14:58:27.552Z,77.40
2022-11-18T15:00:55.219Z,77.80
2022-11-18T15:03:22.894Z,77.70
2022-11-18T15:05:50.696Z,77.60
2022-11-18T15:08:18.163Z,77.40
2022-11-18T15:10:45.622Z,77.10
2022-11-18T15:13:13.019Z,77.20
2022-11-18T15:15:40.497Z,77.40
2022-11-18T15:18:09.391Z,77.50
2022-11-18T15:20:36.879Z,77.30
2022-11-18T15:23:04.243Z,77.40
2022-11-18T15:25:31.637Z,77.70
2022-11-18T15:27:59.060Z,77.80
2022-11-18T15:30:26.455Z,78.00
2022-11-18T15:32:53.978Z,78.20
2022-11-18T15:35:21.394Z,77.80
2022-11-18T15:37:48.745Z,77.50
2022-11-18T15:40:16.409Z,77.50
2022-11-18T15:42:50.591Z,77.10
2022-11-18T15:45:20.433Z,77.10
2022-11-18T15:47:47.897Z,76.80
2022-11-18T15:50:15.857Z,76.90
2022-11-18T15:52:43.483Z,76.80
2022-11-18T15:55:10.954Z,77.00
2022-11-18T15:57:38.373Z,77.00
2022-11-18T16:00:06.001Z,76.70
2022-11-18T16:02:39.605Z,76.60
2022-11-18T16:05:07.279Z,76.70
2022-11-18T16:07:34.788Z,76.60
2022-11-18T16:10:20.870Z,76.60
2022-11-18T16:12:48.546Z,76.70
2022-11-18T16:15:35.554Z,77.00
2022-11-18T16:18:03.964Z,77.20
2022-11-18T16:20:31.389Z,77.20
2022-11-18T16:22:58.869Z,77.00
2022-11-18T16:25:28.041Z,77.20
2022-11-18T16:27:58.566Z,77.30
2022-11-18T16:30:49.615Z,77.50
2022-11-18T16:33:17.016Z,77.40
2022-11-18T16:35:48.598Z,77.30
2022-11-18T16:38:16.030Z,77.10
2022-11-18T16:40:43.486Z,77.00
2022-11-18T16:43:11.184Z,77.10
2022-11-18T16:45:38.923Z,77.30
2022-11-18T16:48:06.379Z,78.00
2022-11-18T16:50:33.775Z,77.10
2022-11-18T16:53:01.097Z,76.60
2022-11-18T16:55:29.934Z,76.40
2022-11-18T16:57:57.179Z,76.20
2022-11-18T17:00:50.169Z,76.20
2022-11-18T17:03:12.960Z,76.10
2022-11-18T17:05:40.320Z,76.20
2022-11-18T17:08:07.666Z,76.00
2022-11-18T17:10:35.276Z,75.80
2022-11-18T17:13:02.531Z,75.70
2022-11-18T17:15:29.706Z,75.60
2022-11-18T17:17:57.011Z,75.70
2022-11-18T17:20:24.455Z,75.90
2022-11-18T17:22:52.631Z,75.90
2022-11-18T17:25:20.046Z,76.00
2022-11-18T17:27:47.415Z,76.10
2022-11-18T17:30:15.019Z,76.20
2022-11-18T17:32:43.177Z,76.10
2022-11-18T17:35:10.524Z,76.00
2022-11-18T17:37:37.869Z,76.00
2022-11-18T17:40:05.725Z,75.90
2022-11-18T17:42:33.041Z,75.70
2022-11-18T17:45:00.512Z,75.80
2022-11-18T17:47:27.930Z,76.00
2022-11-18T17:49:55.206Z,76.10
2022-11-18T17:52:22.555Z,76.20
2022-11-18T17:54:49.990Z,76.30
2022-11-18T17:57:17.311Z,75.90
2022-11-18T17:59:44.915Z,76.10
2022-11-18T18:02:12.522Z,76.00
2022-11-18T18:04:40.006Z,76.20
2022-11-18T18:07:07.373Z,75.90
2022-11-18T18:09:34.738Z,75.90
2022-11-18T18:12:22.059Z,76.10
2022-11-18T18:14:49.745Z,75.80
2022-11-18T18:17:17.431Z,75.40
2022-11-18T18:19:44.715Z,75.40
2022-11-18T18:22:12.143Z,75.30
2022-11-18T18:24:39.983Z,75.30
2022-11-18T18:27:07.329Z,75.50
2022-11-18T18:29:34.559Z,75.20
2022-11-18T18:32:03.330Z,75.30
2022-11-18T18:34:30.581Z,75.10
2022-11-18T18:36:57.940Z,75.10
2022-11-18T18:39:25.270Z,75.00
2022-11-18T18:41:52.586Z,74.60
2022-11-18T18:44:20.318Z,74.40
2022-11-18T18:46:47.966Z,74.00
2022-11-18T18:49:20.326Z,73.70
2022-11-18T18:51:49.496Z,73.30
2022-11-18T18:54:19.075Z,73.50
2022-11-18T18:56:46.851Z,73.90
2022-11-18T18:59:14.105Z,74.20
2022-11-18T19:01:41.731Z,74.60
2022-11-18T19:04:13.356Z,74.40
2022-11-18T19:09:28.897Z,73.80
2022-11-18T19:12:15.024Z,74.20
2022-11-18T19:14:42.437Z,74.50
2022-11-18T19:17:12.151Z,73.80
2022-11-18T19:20:00.710Z,73.80
2022-11-18T19:22:32.806Z,74.00
2022-11-18T19:25:00.875Z,73.90
2022-11-18T19:27:29.009Z,73.80
2022-11-18T19:29:56.528Z,74.00
2022-11-18T19:32:24.337Z,74.10
2022-11-18T19:34:51.567Z,73.90
2022-11-18T19:37:18.920Z,73.80
2022-11-18T19:39:46.145Z,74.10
2022-11-18T19:42:13.611Z,73.90
2022-11-18T19:44:41.035Z,73.80
2022-11-18T19:47:08.497Z,73.80
2022-11-18T19:49:35.769Z,74.40
2022-11-18T19:52:03.129Z,74.70
2022-11-18T19:54:30.519Z,74.70
2022-11-18T19:56:58.024Z,74.80
2022-11-18T19:59:25.255Z,74.60
2022-11-18T20:01:52.644Z,74.50
2022-11-18T20:04:20.065Z,74.30
2022-11-18T20:06:47.626Z,74.10
2022-11-18T20:09:14.948Z,74.20
2022-11-18T20:11:44.718Z,74.10
2022-11-18T20:14:12.755Z,74.00
2022-11-18T20:16:40.909Z,74.30
2022-11-18T20:19:13.230Z,74.20
2022-11-18T20:21:43.268Z,74.30
2022-11-18T20:24:15.776Z,74.40
2022-11-18T20:26:44.266Z,74.50
2022-11-18T20:29:12.058Z,74.70
2022-11-18T20:31:39.475Z,74.80
2022-11-18T20:34:07.119Z,74.90
2022-11-18T20:36:36.233Z,74.90
2022-11-18T20:39:06.772Z,74.80
2022-11-18T20:41:36.470Z,74.90
2022-11-18T20:44:04.194Z,75.00
2022-11-18T20:46:33.149Z,75.10
2022-11-18T20:49:00.550Z,75.10
2022-11-18T20:51:28.961Z,75.10
2022-11-18T20:53:57.990Z,74.90
2022-11-18T20:56:27.139Z,74.90
2022-11-18T20:58:57.298Z,75.10
2022-11-18T21:01:27.969Z,75.10
2022-11-18T21:03:57.444Z,75.10
2022-11-18T21:06:27.781Z,74.90
2022-11-18T21:09:00.297Z,74.80
2022-11-18T21:11:28.292Z,74.80
2022-11-18T21:14:18.431Z,75.00
2022-11-18T21:16:49.205Z,74.90
2022-11-18T21:19:16.907Z,75.00
2022-11-18T21:21:44.690Z,75.10
2022-11-18T21:24:14.357Z,75.40
2022-11-18T21:26:41.995Z,75.60
2022-11-18T21:29:11.485Z,75.80
2022-11-18T21:31:38.822Z,75.90
2022-11-18T21:34:06.779Z,75.90
2022-11-18T21:36:34.521Z,75.90
2022-11-18T21:39:03.221Z,75.60
2022-11-18T21:41:30.895Z,75.60
2022-11-18T21:44:05.611Z,75.70
2022-11-18T21:46:35.005Z,75.80
2022-11-18T21:49:03.644Z,75.90
2022-11-18T21:51:32.079Z,76.00
2022-11-18T21:54:00.091Z,75.90
2022-11-18T21:56:30.666Z,75.80
2022-11-18T21:59:00.366Z,75.70
2022-11-18T22:01:30.928Z,75.70
2022-11-18T22:04:00.284Z,75.60
2022-11-18T22:06:33.501Z,75.30
2022-11-18T22:09:02.982Z,75.50
2022-11-18T22:11:30.760Z,75.60
2022-11-18T22:13:58.312Z,75.70
2022-11-18T22:16:26.886Z,76.10
2022-11-18T22:19:02.395Z,76.20
2022-11-18T22:21:31.215Z,75.80
2022-11-18T22:23:59.942Z,75.70
2022-11-18T22:26:28.458Z,75.50
2022-11-18T22:28:57.656Z,75.50
2022-11-18T22:31:27.021Z,75.50
2022-11-18T22:33:55.410Z,75.70
2022-11-18T22:36:24.684Z,75.80
2022-11-18T22:38:52.807Z,75.80
2022-11-18T22:41:42.063Z,75.70
2022-11-18T22:44:10.672Z,75.60
2022-11-18T22:46:39.326Z,75.80
2022-11-18T22:49:07.876Z,75.80
2022-11-18T22:51:37.068Z,76.00
2022-11-18T22:56:54.298Z,76.20
2022-11-18T22:59:21.945Z,76.20
2022-11-18T23:01:51.108Z,76.20
2022-11-18T23:04:18.726Z,76.00
2022-11-18T23:06:46.123Z,76.00
2022-11-18T23:09:13.744Z,76.10
2022-11-18T23:11:59.945Z,76.20
2022-11-18T23:14:27.239Z,76.10
2022-11-18T23:16:54.810Z,76.10
2022-11-18T23:19:22.456Z,76.00
2022-11-18T23:21:50.454Z,76.10
2022-11-18T23:24:19.080Z,76.10
2022-11-18T23:26:46.860Z,76.30
2022-11-18T23:29:15.345Z,76.40
2022-11-18T23:31:44.567Z,76.60
2022-11-18T23:34:14.126Z,76.60
2022-11-18T23:36:41.810Z,76.60
2022-11-18T23:39:09.987Z,76.60
2022-11-18T23:41:37.716Z,76.60
2022-11-18T23:44:05.843Z,76.70
2022-11-18T23:46:33.647Z,76.70
2022-11-18T23:49:01.315Z,76.80
2022-11-18T23:51:28.818Z,76.80
2022-11-18T23:53:57.365Z,76.90
2022-11-18T23:56:27.546Z,77.00
2022-11-18T23:58:56.523Z,77.10
